Terminal Aerodrome Forecast
Issued by NWS Melbourne, FL

Home | Current Version | Previous Version | Text Only | Print | Product List | Glossary On
Versions: 1 2 3 4 5 6 7 8 9 10 11 12 13 14 15 16 17 18
229
FTUS42 KMLB 240541
TAFDAB
TAF
KDAB 240541Z 2406/2506 21004KT P6SM SCT015 SCT040 BKN250
     FM240800 20004KT P6SM BKN015
     FM241000 24004KT P6SM BKN008
     FM241400 25008KT P6SM SCT025 BKN250
     FM241800 25011KT P6SM FEW050
     FM250000 25009KT P6SM SCT250=

USA.gov is the U.S. government's official web portal to all federal, state and local government web resources and services.